sensor_id;sensor_type;location;lat;lon;timestamp;pressure;altitude;pressure_sealevel;temperature;humidity
26978;BME280;56314;48.088;11.642;2023-01-30T00:00:54;95993.94;;;-3.40;87.43
26978;BME280;56314;48.088;11.642;2023-01-30T00:03:21;95985.38;;;-3.41;88.02
26978;BME280;56314;48.088;11.642;2023-01-30T00:05:46;95984.63;;;-3.49;87.64
26978;BME280;56314;48.088;11.642;2023-01-30T00:08:12;95981.22;;;-3.49;87.80
26978;BME280;56314;48.088;11.642;2023-01-30T00:10:38;95973.56;;;-3.56;87.74
26978;BME280;56314;48.088;11.642;2023-01-30T00:13:04;95975.19;;;-3.48;87.67
26978;BME280;56314;48.088;11.642;2023-01-30T00:15:29;95965.69;;;-3.40;86.57
26978;BME280;56314;48.088;11.642;2023-01-30T00:17:54;95955.53;;;-3.51;86.50
26978;BME280;56314;48.088;11.642;2023-01-30T00:20:19;95960.78;;;-3.57;86.69
26978;BME280;56314;48.088;11.642;2023-01-30T00:22:45;95955.72;;;-3.65;86.84
26978;BME280;56314;48.088;11.642;2023-01-30T00:25:10;95953.16;;;-3.65;87.81
26978;BME280;56314;48.088;11.642;2023-01-30T00:27:35;95953.22;;;-3.69;88.00
26978;BME280;56314;48.088;11.642;2023-01-30T00:30:01;95948.19;;;-3.79;87.25
26978;BME280;56314;48.088;11.642;2023-01-30T00:32:30;95956.81;;;-3.86;87.09
26978;BME280;56314;48.088;11.642;2023-01-30T00:34:55;95950.81;;;-3.82;86.93
26978;BME280;56314;48.088;11.642;2023-01-30T00:37:20;95945.75;;;-3.90;87.08
26978;BME280;56314;48.088;11.642;2023-01-30T00:39:46;95946.66;;;-3.92;87.28
26978;BME280;56314;48.088;11.642;2023-01-30T00:42:11;95941.66;;;-4.05;87.43
26978;BME280;56314;48.088;11.642;2023-01-30T00:44:55;95945.91;;;-4.04;87.02
26978;BME280;56314;48.088;11.642;2023-01-30T00:47:39;95938.25;;;-4.08;87.38
26978;BME280;56314;48.088;11.642;2023-01-30T00:50:04;95923.84;;;-4.20;87.38
26978;BME280;56314;48.088;11.642;2023-01-30T00:52:30;95928.22;;;-4.28;87.74
26978;BME280;56314;48.088;11.642;2023-01-30T00:54:55;95921.34;;;-4.25;88.14
26978;BME280;56314;48.088;11.642;2023-01-30T00:57:21;95923.09;;;-4.28;88.14
26978;BME280;56314;48.088;11.642;2023-01-30T00:59:46;95922.28;;;-4.34;87.64
26978;BME280;56314;48.088;11.642;2023-01-30T01:02:11;95909.38;;;-4.26;88.80
26978;BME280;56314;48.088;11.642;2023-01-30T01:04:37;95915.34;;;-4.25;87.66
26978;BME280;56314;48.088;11.642;2023-01-30T01:07:12;95905.94;;;-4.23;87.86
26978;BME280;56314;48.088;11.642;2023-01-30T01:09:37;95903.41;;;-4.28;88.14
26978;BME280;56314;48.088;11.642;2023-01-30T01:12:03;95903.38;;;-4.25;88.41
26978;BME280;56314;48.088;11.642;2023-01-30T01:14:29;95893.09;;;-4.22;88.30
26978;BME280;56314;48.088;11.642;2023-01-30T01:16:54;95889.69;;;-4.24;87.57
26978;BME280;56314;48.088;11.642;2023-01-30T01:19:19;95884.56;;;-4.24;87.39
26978;BME280;56314;48.088;11.642;2023-01-30T01:21:45;95877.78;;;-4.31;87.20
26978;BME280;56314;48.088;11.642;2023-01-30T01:24:12;95882.13;;;-4.35;86.88
26978;BME280;56314;48.088;11.642;2023-01-30T01:26:38;95872.81;;;-4.43;86.67
26978;BME280;56314;48.088;11.642;2023-01-30T01:29:04;95891.66;;;-4.47;87.31
26978;BME280;56314;48.088;11.642;2023-01-30T01:31:29;95888.28;;;-4.53;87.81
26978;BME280;56314;48.088;11.642;2023-01-30T01:33:55;95884.03;;;-4.54;88.25
26978;BME280;56314;48.088;11.642;2023-01-30T01:36:21;95873.78;;;-4.57;88.39
26978;BME280;56314;48.088;11.642;2023-01-30T01:38:46;95887.34;;;-4.44;87.61
26978;BME280;56314;48.088;11.642;2023-01-30T01:41:12;95882.25;;;-4.45;87.07
26978;BME280;56314;48.088;11.642;2023-01-30T01:43:59;95878.78;;;-4.41;87.22
26978;BME280;56314;48.088;11.642;2023-01-30T01:46:39;95875.41;;;-4.46;87.69
26978;BME280;56314;48.088;11.642;2023-01-30T01:49:13;95873.63;;;-4.41;86.78
26978;BME280;56314;48.088;11.642;2023-01-30T01:51:47;95866.88;;;-4.49;86.83
26978;BME280;56314;48.088;11.642;2023-01-30T01:54:22;95870.38;;;-4.56;86.19
26978;BME280;56314;48.088;11.642;2023-01-30T01:56:50;95859.31;;;-4.58;87.55
26978;BME280;56314;48.088;11.642;2023-01-30T01:59:24;95857.63;;;-4.62;86.94
26978;BME280;56314;48.088;11.642;2023-01-30T02:01:55;95853.38;;;-4.66;86.84
26978;BME280;56314;48.088;11.642;2023-01-30T02:04:23;95858.59;;;-4.74;87.03
26978;BME280;56314;48.088;11.642;2023-01-30T02:07:08;95856.06;;;-4.79;87.24
26978;BME280;56314;48.088;11.642;2023-01-30T02:09:34;95859.56;;;-4.86;87.41
26978;BME280;56314;48.088;11.642;2023-01-30T02:12:01;95868.84;;;-4.74;88.35
26978;BME280;56314;48.088;11.642;2023-01-30T02:14:29;95866.09;;;-4.57;87.75
26978;BME280;56314;48.088;11.642;2023-01-30T02:16:55;95871.25;;;-4.58;87.16
26978;BME280;56314;48.088;11.642;2023-01-30T02:19:23;95876.44;;;-4.66;87.90
26978;BME280;56314;48.088;11.642;2023-01-30T02:33:09;95883.16;;;-4.53;87.67
26978;BME280;56314;48.088;11.642;2023-01-30T02:41:18;95871.50;;;-4.82;87.87
26978;BME280;56314;48.088;11.642;2023-01-30T02:49:15;95876.34;;;-4.52;89.36
26978;BME280;56314;48.088;11.642;2023-01-30T02:51:45;95887.41;;;-4.49;89.12
26978;BME280;56314;48.088;11.642;2023-01-30T02:54:12;95887.47;;;-4.56;89.03
26978;BME280;56314;48.088;11.642;2023-01-30T02:56:52;95888.97;;;-4.35;88.71
26978;BME280;56314;48.088;11.642;2023-01-30T02:59:22;95891.53;;;-4.35;87.57
26978;BME280;56314;48.088;11.642;2023-01-30T03:07:46;95896.91;;;-4.61;89.40
26978;BME280;56314;48.088;11.642;2023-01-30T03:12:51;95911.47;;;-4.64;89.23
26978;BME280;56314;48.088;11.642;2023-01-30T03:15:34;95902.03;;;-4.60;89.88
26978;BME280;56314;48.088;11.642;2023-01-30T03:18:02;95906.38;;;-4.70;88.95
26978;BME280;56314;48.088;11.642;2023-01-30T03:20:29;95906.25;;;-4.54;89.19
26978;BME280;56314;48.088;11.642;2023-01-30T03:22:55;95900.31;;;-4.59;88.59
26978;BME280;56314;48.088;11.642;2023-01-30T03:25:22;95892.63;;;-4.58;88.87
26978;BME280;56314;48.088;11.642;2023-01-30T03:27:52;95883.22;;;-4.60;88.87
26978;BME280;56314;48.088;11.642;2023-01-30T03:30:18;95877.28;;;-4.61;88.28
26978;BME280;56314;48.088;11.642;2023-01-30T03:32:44;95878.13;;;-4.62;88.47
26978;BME280;56314;48.088;11.642;2023-01-30T03:35:09;95865.38;;;-4.70;88.26
26978;BME280;56314;48.088;11.642;2023-01-30T03:37:35;95872.25;;;-4.73;88.30
26978;BME280;56314;48.088;11.642;2023-01-30T03:40:00;95867.22;;;-4.81;89.28
26978;BME280;56314;48.088;11.642;2023-01-30T03:42:26;95875.59;;;-4.65;89.31
26978;BME280;56314;48.088;11.642;2023-01-30T03:44:51;95866.25;;;-4.69;88.84
26978;BME280;56314;48.088;11.642;2023-01-30T03:47:16;95859.41;;;-4.72;88.93
26978;BME280;56314;48.088;11.642;2023-01-30T03:49:42;95863.78;;;-4.80;88.70
26978;BME280;56314;48.088;11.642;2023-01-30T03:52:07;95858.66;;;-4.80;88.89
26978;BME280;56314;48.088;11.642;2023-01-30T03:54:33;95856.06;;;-4.77;88.92
26978;BME280;56314;48.088;11.642;2023-01-30T03:56:58;95848.34;;;-4.72;89.41
26978;BME280;56314;48.088;11.642;2023-01-30T03:59:23;95846.59;;;-4.69;88.64
26978;BME280;56314;48.088;11.642;2023-01-30T04:01:49;95838.00;;;-4.65;88.52
26978;BME280;56314;48.088;11.642;2023-01-30T04:04:14;95839.59;;;-4.54;88.16
26978;BME280;56314;48.088;11.642;2023-01-30T04:06:39;95846.47;;;-4.56;87.73
26978;BME280;56314;48.088;11.642;2023-01-30T04:09:05;95840.44;;;-4.54;87.80
26978;BME280;56314;48.088;11.642;2023-01-30T04:11:30;95828.34;;;-4.42;88.49
26978;BME280;56314;48.088;11.642;2023-01-30T04:13:55;95832.66;;;-4.43;87.83
26978;BME280;56314;48.088;11.642;2023-01-30T04:16:24;95836.91;;;-4.42;87.95
26978;BME280;56314;48.088;11.642;2023-01-30T04:18:49;95848.81;;;-4.36;87.94
26978;BME280;56314;48.088;11.642;2023-01-30T04:21:15;95870.97;;;-4.32;88.81
26978;BME280;56314;48.088;11.642;2023-01-30T04:23:41;95858.13;;;-4.29;88.42
26978;BME280;56314;48.088;11.642;2023-01-30T04:26:07;95854.66;;;-4.26;88.25
26978;BME280;56314;48.088;11.642;2023-01-30T04:28:33;95854.63;;;-4.22;88.22
26978;BME280;56314;48.088;11.642;2023-01-30T04:30:58;95861.41;;;-4.18;88.08
26978;BME280;56314;48.088;11.642;2023-01-30T04:33:24;95855.41;;;-4.15;87.42
26978;BME280;56314;48.088;11.642;2023-01-30T04:35:53;95849.34;;;-4.11;88.04
26978;BME280;56314;48.088;11.642;2023-01-30T04:38:19;95851.78;;;-3.98;88.08
26978;BME280;56314;48.088;11.642;2023-01-30T04:40:51;95849.19;;;-3.95;88.08
26978;BME280;56314;48.088;11.642;2023-01-30T04:43:18;95852.56;;;-3.93;88.26
26978;BME280;56314;48.088;11.642;2023-01-30T04:45:48;95856.78;;;-3.88;87.98
26978;BME280;56314;48.088;11.642;2023-01-30T04:48:14;95852.44;;;-3.84;87.70
26978;BME280;56314;48.088;11.642;2023-01-30T04:50:41;95844.66;;;-3.78;88.22
26978;BME280;56314;48.088;11.642;2023-01-30T04:53:07;95825.75;;;-3.72;87.87
26978;BME280;56314;48.088;11.642;2023-01-30T04:55:33;95812.06;;;-3.69;87.30
26978;BME280;56314;48.088;11.642;2023-01-30T04:57:58;95803.47;;;-3.68;86.76
26978;BME280;56314;48.088;11.642;2023-01-30T05:00:24;95798.28;;;-3.64;86.80
26978;BME280;56314;48.088;11.642;2023-01-30T05:02:50;95811.06;;;-3.62;86.38
26978;BME280;56314;48.088;11.642;2023-01-30T05:05:16;95815.44;;;-3.67;86.94
26978;BME280;56314;48.088;11.642;2023-01-30T05:07:41;95807.59;;;-3.58;86.77
26978;BME280;56314;48.088;11.642;2023-01-30T05:10:07;95802.50;;;-3.61;86.75
26978;BME280;56314;48.088;11.642;2023-01-30T05:12:32;95811.06;;;-3.62;87.65
26978;BME280;56314;48.088;11.642;2023-01-30T05:14:58;95811.06;;;-3.62;87.52
26978;BME280;56314;48.088;11.642;2023-01-30T05:17:23;95810.25;;;-3.64;87.03
26978;BME280;56314;48.088;11.642;2023-01-30T05:19:48;95806.00;;;-3.67;87.25
26978;BME280;56314;48.088;11.642;2023-01-30T05:22:13;95785.50;;;-3.68;87.43
26978;BME280;56314;48.088;11.642;2023-01-30T05:24:39;95758.00;;;-3.60;86.69
26978;BME280;56314;48.088;11.642;2023-01-30T05:27:04;95755.41;;;-3.59;86.95
26978;BME280;56314;48.088;11.642;2023-01-30T05:29:30;95779.38;;;-3.58;86.95
26978;BME280;56314;48.088;11.642;2023-01-30T05:31:55;95776.88;;;-3.63;87.09
26978;BME280;56314;48.088;11.642;2023-01-30T05:34:20;95779.28;;;-3.53;86.88
26978;BME280;56314;48.088;11.642;2023-01-30T05:36:46;95777.59;;;-3.54;86.07
26978;BME280;56314;48.088;11.642;2023-01-30T05:39:11;95771.66;;;-3.58;86.50
26978;BME280;56314;48.088;11.642;2023-01-30T05:41:37;95782.59;;;-3.47;85.83
26978;BME280;56314;48.088;11.642;2023-01-30T05:44:02;95774.03;;;-3.47;85.66
26978;BME280;56314;48.088;11.642;2023-01-30T05:46:27;95773.28;;;-3.52;85.08
26978;BME280;56314;48.088;11.642;2023-01-30T05:48:53;95774.94;;;-3.50;86.12
26978;BME280;56314;48.088;11.642;2023-01-30T05:51:23;95776.59;;;-3.46;85.30
26978;BME280;56314;48.088;11.642;2023-01-30T05:53:49;95763.88;;;-3.53;85.79
26978;BME280;56314;48.088;11.642;2023-01-30T05:56:15;95771.56;;;-3.52;85.30
26978;BME280;56314;48.088;11.642;2023-01-30T05:58:41;95771.66;;;-3.58;85.63
26978;BME280;56314;48.088;11.642;2023-01-30T06:01:10;95769.09;;;-3.58;86.17
26978;BME280;56314;48.088;11.642;2023-01-30T06:03:36;95754.47;;;-3.54;86.00
26978;BME280;56314;48.088;11.642;2023-01-30T06:06:03;95759.59;;;-3.53;86.59
26978;BME280;56314;48.088;11.642;2023-01-30T06:08:29;95763.94;;;-3.57;85.16
26978;BME280;56314;48.088;11.642;2023-01-30T06:10:59;95775.13;;;-3.62;85.61
26978;BME280;56314;48.088;11.642;2023-01-30T06:13:25;95769.97;;;-3.61;85.35
26978;BME280;56314;48.088;11.642;2023-01-30T06:15:51;95767.41;;;-3.61;85.54
26978;BME280;56314;48.088;11.642;2023-01-30T06:18:17;95758.00;;;-3.60;84.67
26978;BME280;56314;48.088;11.642;2023-01-30T06:20:52;95766.50;;;-3.57;84.95
26978;BME280;56314;48.088;11.642;2023-01-30T06:23:18;95770.88;;;-3.62;84.70
26978;BME280;56314;48.088;11.642;2023-01-30T06:25:46;95769.16;;;-3.63;84.28
26978;BME280;56314;48.088;11.642;2023-01-30T06:28:12;95772.56;;;-3.62;85.02
26978;BME280;56314;48.088;11.642;2023-01-30T06:30:38;95762.97;;;-3.51;84.90
26978;BME280;56314;48.088;11.642;2023-01-30T06:33:04;95755.06;;;-3.37;84.08
26978;BME280;56314;48.088;11.642;2023-01-30T06:35:30;95766.06;;;-3.29;83.17
26978;BME280;56314;48.088;11.642;2023-01-30T06:37:55;95765.44;;;-3.43;82.85
26978;BME280;56314;48.088;11.642;2023-01-30T06:40:20;95761.91;;;-3.37;83.51
26978;BME280;56314;48.088;11.642;2023-01-30T06:42:47;95749.19;;;-3.44;83.98
26978;BME280;56314;48.088;11.642;2023-01-30T06:45:14;95756.81;;;-3.41;83.72
26978;BME280;56314;48.088;11.642;2023-01-30T06:47:51;95756.94;;;-3.48;82.89
26978;BME280;56314;48.088;11.642;2023-01-30T06:50:18;95767.34;;;-3.56;83.11
26978;BME280;56314;48.088;11.642;2023-01-30T06:52:45;95771.63;;;-3.57;84.23
26978;BME280;56314;48.088;11.642;2023-01-30T06:55:13;95776.75;;;-3.57;84.45
26978;BME280;56314;48.088;11.642;2023-01-30T06:57:39;95777.56;;;-3.51;84.97
26978;BME280;56314;48.088;11.642;2023-01-30T07:00:06;95780.03;;;-3.48;84.37
26978;BME280;56314;48.088;11.642;2023-01-30T07:02:32;95797.13;;;-3.44;85.01
26978;BME280;56314;48.088;11.642;2023-01-30T07:05:03;95782.50;;;-3.41;84.19
26978;BME280;56314;48.088;11.642;2023-01-30T07:07:29;95786.69;;;-3.33;84.29
26978;BME280;56314;48.088;11.642;2023-01-30T07:09:55;95790.91;;;-3.31;83.75
26978;BME280;56314;48.088;11.642;2023-01-30T07:12:21;95789.13;;;-3.26;83.30
26978;BME280;56314;48.088;11.642;2023-01-30T07:14:46;95784.75;;;-3.20;83.03
26978;BME280;56314;48.088;11.642;2023-01-30T07:17:11;95782.97;;;-3.17;82.23
26978;BME280;56314;48.088;11.642;2023-01-30T07:19:37;95790.75;;;-3.21;82.94
26978;BME280;56314;48.088;11.642;2023-01-30T07:22:03;95791.50;;;-3.15;82.97
26978;BME280;56314;48.088;11.642;2023-01-30T07:24:29;95790.53;;;-3.09;83.45
26978;BME280;56314;48.088;11.642;2023-01-30T07:26:54;95793.03;;;-3.04;82.62
26978;BME280;56314;48.088;11.642;2023-01-30T07:29:19;95790.38;;;-2.98;82.85
26978;BME280;56314;48.088;11.642;2023-01-30T07:31:45;95791.06;;;-2.90;83.12
26978;BME280;56314;48.088;11.642;2023-01-30T07:34:10;95791.63;;;-2.74;82.42
26978;BME280;56314;48.088;11.642;2023-01-30T07:36:35;95791.41;;;-2.61;80.81
26978;BME280;56314;48.088;11.642;2023-01-30T07:39:02;95789.38;;;-2.44;80.32
26978;BME280;56314;48.088;11.642;2023-01-30T07:41:27;95787.44;;;-2.33;79.80
26978;BME280;56314;48.088;11.642;2023-01-30T07:43:52;95791.41;;;-2.18;79.09
26978;BME280;56314;48.088;11.642;2023-01-30T07:46:18;95787.81;;;-2.09;78.30
26978;BME280;56314;48.088;11.642;2023-01-30T07:48:44;95782.41;;;-1.96;78.07
26978;BME280;56314;48.088;11.642;2023-01-30T07:51:10;95774.53;;;-1.90;77.67
26978;BME280;56314;48.088;11.642;2023-01-30T07:53:35;95771.66;;;-1.76;76.98
26978;BME280;56314;48.088;11.642;2023-01-30T07:56:08;95762.69;;;-1.60;75.33
26978;BME280;56314;48.088;11.642;2023-01-30T07:58:34;95751.31;;;-1.51;74.82
26978;BME280;56314;48.088;11.642;2023-01-30T08:00:59;95737.31;;;-1.39;73.96
26978;BME280;56314;48.088;11.642;2023-01-30T08:03:24;95740.50;;;-1.29;74.06
26978;BME280;56314;48.088;11.642;2023-01-30T08:05:50;95732.22;;;-1.08;72.32
26978;BME280;56314;48.088;11.642;2023-01-30T08:08:17;95718.94;;;-0.92;71.83
26978;BME280;56314;48.088;11.642;2023-01-30T08:10:42;95714.63;;;-0.91;71.16
26978;BME280;56314;48.088;11.642;2023-01-30T08:13:07;95723.47;;;-0.69;70.15
26978;BME280;56314;48.088;11.642;2023-01-30T08:15:33;95719.88;;;-0.63;70.03
26978;BME280;56314;48.088;11.642;2023-01-30T08:17:58;95718.31;;;-0.39;68.20
26978;BME280;56314;48.088;11.642;2023-01-30T08:20:25;95726.59;;;-0.27;68.60
26978;BME280;56314;48.088;11.642;2023-01-30T08:22:51;95725.56;;;-0.22;67.89
26978;BME280;56314;48.088;11.642;2023-01-30T08:25:16;95726.47;;;-0.23;68.39
26978;BME280;56314;48.088;11.642;2023-01-30T08:27:42;95726.09;;;-0.10;68.08
26978;BME280;56314;48.088;11.642;2023-01-30T08:30:08;95716.56;;;-0.07;67.52
26978;BME280;56314;48.088;11.642;2023-01-30T08:32:34;95714.63;;;0.28;65.29
26978;BME280;56314;48.088;11.642;2023-01-30T08:35:00;95720.06;;;1.00;63.42
26978;BME280;56314;48.088;11.642;2023-01-30T08:37:25;95715.97;;;1.43;61.23
26978;BME280;56314;48.088;11.642;2023-01-30T08:39:50;95712.88;;;1.57;61.07
26978;BME280;56314;48.088;11.642;2023-01-30T08:42:15;95703.75;;;2.17;58.12
26978;BME280;56314;48.088;11.642;2023-01-30T08:44:41;95683.88;;;1.95;58.45
26978;BME280;56314;48.088;11.642;2023-01-30T08:47:06;95692.56;;;1.70;59.39
26978;BME280;56314;48.088;11.642;2023-01-30T08:49:31;95699.72;;;1.40;59.58
26978;BME280;56314;48.088;11.642;2023-01-30T08:51:57;95694.50;;;1.87;59.25
26978;BME280;56314;48.088;11.642;2023-01-30T08:54:22;95689.06;;;2.60;56.80
26978;BME280;56314;48.088;11.642;2023-01-30T08:56:47;95678.34;;;3.69;54.14
26978;BME280;56314;48.088;11.642;2023-01-30T08:59:13;95674.25;;;4.75;49.66
26978;BME280;56314;48.088;11.642;2023-01-30T09:01:38;95659.44;;;5.94;47.54
26978;BME280;56314;48.088;11.642;2023-01-30T09:04:03;95645.22;;;5.52;45.55
26978;BME280;56314;48.088;11.642;2023-01-30T09:06:29;95640.69;;;5.88;45.82
26978;BME280;56314;48.088;11.642;2023-01-30T09:08:54;95650.97;;;5.41;45.73
26978;BME280;56314;48.088;11.642;2023-01-30T09:11:19;95639.38;;;4.80;47.68
26978;BME280;56314;48.088;11.642;2023-01-30T09:13:45;95647.56;;;4.18;48.79
26978;BME280;56314;48.088;11.642;2023-01-30T09:16:11;95664.53;;;5.30;47.56
26978;BME280;56314;48.088;11.642;2023-01-30T09:18:38;95647.91;;;6.77;44.18
26978;BME280;56314;48.088;11.642;2023-01-30T09:21:04;95644.44;;;6.62;43.91
26978;BME280;56314;48.088;11.642;2023-01-30T09:23:30;95636.91;;;7.46;42.74
26978;BME280;56314;48.088;11.642;2023-01-30T09:25:55;95630.75;;;8.85;40.03
26978;BME280;56314;48.088;11.642;2023-01-30T09:28:21;95636.16;;;9.61;37.02
26978;BME280;56314;48.088;11.642;2023-01-30T09:30:46;95626.78;;;10.20;36.29
26978;BME280;56314;48.088;11.642;2023-01-30T09:33:12;95612.31;;;10.52;35.51
26978;BME280;56314;48.088;11.642;2023-01-30T09:35:40;95638.81;;;11.43;34.77
26978;BME280;56314;48.088;11.642;2023-01-30T09:38:06;95642.19;;;11.67;34.14
26978;BME280;56314;48.088;11.642;2023-01-30T09:40:31;95635.56;;;11.16;33.10
26978;BME280;56314;48.088;11.642;2023-01-30T09:46:37;95621.13;;;11.79;32.89
26978;BME280;56314;48.088;11.642;2023-01-30T09:49:22;95607.63;;;11.72;32.72
26978;BME280;56314;48.088;11.642;2023-01-30T09:54:29;95598.03;;;12.82;29.98
26978;BME280;56314;48.088;11.642;2023-01-30T09:57:18;95589.28;;;12.81;30.09
26978;BME280;56314;48.088;11.642;2023-01-30T10:05:00;95584.88;;;10.67;31.52
26978;BME280;56314;48.088;11.642;2023-01-30T10:20:43;95620.41;;;7.31;40.76
26978;BME280;56314;48.088;11.642;2023-01-30T10:26:00;95585.34;;;7.77;41.49
26978;BME280;56314;48.088;11.642;2023-01-30T10:28:29;95582.59;;;8.88;39.97
26978;BME280;56314;48.088;11.642;2023-01-30T10:31:04;95561.00;;;9.86;37.73
26978;BME280;56314;48.088;11.642;2023-01-30T10:36:12;95541.16;;;11.24;35.85
26978;BME280;56314;48.088;11.642;2023-01-30T10:38:44;95530.50;;;11.15;36.06
26978;BME280;56314;48.088;11.642;2023-01-30T10:41:16;95526.22;;;11.14;36.63
26978;BME280;56314;48.088;11.642;2023-01-30T10:43:52;95535.66;;;11.50;36.20
26978;BME280;56314;48.088;11.642;2023-01-30T10:49:10;95540.75;;;10.12;38.53
26978;BME280;56314;48.088;11.642;2023-01-30T10:51:46;95546.81;;;10.37;38.93
26978;BME280;56314;48.088;11.642;2023-01-30T10:54:52;95536.31;;;10.13;39.34
26978;BME280;56314;48.088;11.642;2023-01-30T10:59:55;95517.56;;;10.77;39.13
26978;BME280;56314;48.088;11.642;2023-01-30T11:02:30;95536.13;;;9.79;40.52
26978;BME280;56314;48.088;11.642;2023-01-30T11:05:03;95552.31;;;8.97;41.95
26978;BME280;56314;48.088;11.642;2023-01-30T11:07:37;95551.38;;;8.31;43.87
26978;BME280;56314;48.088;11.642;2023-01-30T11:10:15;95549.78;;;7.74;45.65
26978;BME280;56314;48.088;11.642;2023-01-30T11:12:40;95545.00;;;7.24;47.23
26978;BME280;56314;48.088;11.642;2023-01-30T11:15:06;95530.94;;;6.84;48.93
26978;BME280;56314;48.088;11.642;2023-01-30T11:17:34;95518.81;;;6.83;49.64
26978;BME280;56314;48.088;11.642;2023-01-30T11:20:08;95507.63;;;7.66;47.83
26978;BME280;56314;48.088;11.642;2023-01-30T11:22:35;95494.06;;;8.14;47.20
26978;BME280;56314;48.088;11.642;2023-01-30T11:25:12;95503.97;;;8.23;46.83
26978;BME280;56314;48.088;11.642;2023-01-30T11:27:41;95488.19;;;7.97;47.92
26978;BME280;56314;48.088;11.642;2023-01-30T11:30:15;95483.81;;;7.29;48.17
26978;BME280;56314;48.088;11.642;2023-01-30T11:32:47;95473.28;;;6.29;51.46
26978;BME280;56314;48.088;11.642;2023-01-30T11:37:43;95474.03;;;5.70;53.97
26978;BME280;56314;48.088;11.642;2023-01-30T11:40:25;95477.38;;;6.19;53.72
26978;BME280;56314;48.088;11.642;2023-01-30T11:43:02;95466.44;;;7.00;51.99
26978;BME280;56314;48.088;11.642;2023-01-30T11:45:32;95487.06;;;7.74;49.74
26978;BME280;56314;48.088;11.642;2023-01-30T11:48:00;95462.44;;;7.91;48.61
26978;BME280;56314;48.088;11.642;2023-01-30T11:50:38;95468.16;;;7.83;48.96
26978;BME280;56314;48.088;11.642;2023-01-30T11:53:04;95451.75;;;7.54;49.84
26978;BME280;56314;48.088;11.642;2023-01-30T11:55:38;95443.75;;;7.01;51.49
26978;BME280;56314;48.088;11.642;2023-01-30T11:58:07;95436.16;;;6.83;51.62
26978;BME280;56314;48.088;11.642;2023-01-30T12:00:41;95442.19;;;7.40;51.41
26978;BME280;56314;48.088;11.642;2023-01-30T12:03:18;95442.47;;;6.93;51.11
26978;BME280;56314;48.088;11.642;2023-01-30T12:05:47;95450.47;;;6.32;52.33
26978;BME280;56314;48.088;11.642;2023-01-30T12:10:52;95452.34;;;5.53;55.98
26978;BME280;56314;48.088;11.642;2023-01-30T12:13:24;95450.72;;;5.20;56.79
26978;BME280;56314;48.088;11.642;2023-01-30T12:16:17;95447.81;;;4.77;57.41
26978;BME280;56314;48.088;11.642;2023-01-30T12:22:14;95461.00;;;4.40;60.18
26978;BME280;56314;48.088;11.642;2023-01-30T12:24:47;95451.78;;;4.17;60.44
26978;BME280;56314;48.088;11.642;2023-01-30T12:30:41;95438.03;;;3.80;61.54
26978;BME280;56314;48.088;11.642;2023-01-30T12:33:11;95439.16;;;3.74;61.58
26978;BME280;56314;48.088;11.642;2023-01-30T12:35:42;95430.34;;;3.61;61.50
26978;BME280;56314;48.088;11.642;2023-01-30T12:41:37;95413.50;;;3.50;62.17
26978;BME280;56314;48.088;11.642;2023-01-30T12:50:10;95394.25;;;3.37;62.67
26978;BME280;56314;48.088;11.642;2023-01-30T13:00:57;95405.56;;;3.36;65.27
26978;BME280;56314;48.088;11.642;2023-01-30T13:04:03;95403.09;;;3.33;65.80
26978;BME280;56314;48.088;11.642;2023-01-30T13:22:19;95431.72;;;3.31;67.19
26978;BME280;56314;48.088;11.642;2023-01-30T13:27:22;95426.38;;;3.34;67.45
26978;BME280;56314;48.088;11.642;2023-01-30T13:29:50;95428.38;;;3.47;66.69
26978;BME280;56314;48.088;11.642;2023-01-30T13:32:37;95434.66;;;3.43;66.28
26978;BME280;56314;48.088;11.642;2023-01-30T13:35:13;95445.88;;;3.43;66.07
26978;BME280;56314;48.088;11.642;2023-01-30T13:37:39;95445.09;;;3.41;66.69
26978;BME280;56314;48.088;11.642;2023-01-30T13:40:26;95451.84;;;3.45;66.21
26978;BME280;56314;48.088;11.642;2023-01-30T13:43:04;95448.47;;;3.43;66.00
26978;BME280;56314;48.088;11.642;2023-01-30T13:45:34;95457.31;;;3.39;66.28
26978;BME280;56314;48.088;11.642;2023-01-30T13:56:33;95461.22;;;3.30;65.76
26978;BME280;56314;48.088;11.642;2023-01-30T13:59:08;95452.66;;;3.28;65.98
26978;BME280;56314;48.088;11.642;2023-01-30T14:07:40;95471.50;;;3.32;66.14
26978;BME280;56314;48.088;11.642;2023-01-30T14:13:04;95467.63;;;3.41;66.11
26978;BME280;56314;48.088;11.642;2023-01-30T14:15:29;95463.34;;;3.39;66.03
26978;BME280;56314;48.088;11.642;2023-01-30T14:18:21;95460.22;;;3.33;66.04
26978;BME280;56314;48.088;11.642;2023-01-30T14:20:48;95473.44;;;3.46;65.82
26978;BME280;56314;48.088;11.642;2023-01-30T14:23:23;95475.06;;;3.48;65.65
26978;BME280;56314;48.088;11.642;2023-01-30T14:25:53;95485.88;;;3.39;64.85
26978;BME280;56314;48.088;11.642;2023-01-30T14:38:26;95512.75;;;3.19;67.33
26978;BME280;56314;48.088;11.642;2023-01-30T14:46:01;95530.84;;;3.20;69.02
26978;BME280;56314;48.088;11.642;2023-01-30T14:54:18;95532.88;;;2.95;69.48
26978;BME280;56314;48.088;11.642;2023-01-30T14:57:04;95534.81;;;2.89;72.08
26978;BME280;56314;48.088;11.642;2023-01-30T14:59:45;95551.31;;;2.88;72.53
26978;BME280;56314;48.088;11.642;2023-01-30T15:09:53;95556.06;;;2.79;70.07
26978;BME280;56314;48.088;11.642;2023-01-30T15:18:32;95576.84;;;2.77;69.85
26978;BME280;56314;48.088;11.642;2023-01-30T15:26:47;95585.91;;;2.68;71.35
26978;BME280;56314;48.088;11.642;2023-01-30T15:29:32;95597.19;;;2.67;71.74
26978;BME280;56314;48.088;11.642;2023-01-30T15:32:21;95591.00;;;2.70;72.36
26978;BME280;56314;48.088;11.642;2023-01-30T15:34:58;95593.69;;;2.68;72.02
26978;BME280;56314;48.088;11.642;2023-01-30T15:37:38;95602.41;;;2.66;72.25
26978;BME280;56314;48.088;11.642;2023-01-30T15:42:42;95597.56;;;2.58;72.98
26978;BME280;56314;48.088;11.642;2023-01-30T15:48:28;95602.09;;;2.53;73.83
26978;BME280;56314;48.088;11.642;2023-01-30T15:50:50;95614.16;;;2.54;73.17
26978;BME280;56314;48.088;11.642;2023-01-30T15:53:24;95608.47;;;2.45;74.41
26978;BME280;56314;48.088;11.642;2023-01-30T15:55:50;95616.94;;;2.49;74.00
26978;BME280;56314;48.088;11.642;2023-01-30T15:58:19;95621.53;;;2.42;74.29